Time;durP1;ratioP1;P1;durP2;ratioP2;P2;SDS_P1;SDS_P2;PMS_P1;PMS_P2;Temp;Humidity;BMP_temperature;BMP_pressure;BME280_temperature;BME280_humidity;BME280_pressure;Samples;Min_cycle;Max_cycle;Signal;HPM_P1;HPM_P2
2022/07/16 00:02:04;;;;;;;3.65;2.00;;;18.40;99.90;;;;;;4846508;29;39242;-84
2022/07/16 00:04:30;;;;;;;3.08;1.80;;;18.30;99.90;;;;;;4849536;29;37078;-84
2022/07/16 00:06:57;;;;;;;1.98;1.77;;;18.30;99.90;;;;;;4846567;29;39525;-85
2022/07/16 00:09:23;;;;;;;2.88;1.83;;;18.30;99.90;;;;;;4869987;29;37188;-84
2022/07/16 00:11:49;;;;;;;3.85;1.75;;;18.30;99.90;;;;;;4842858;29;38168;-84
2022/07/16 00:14:15;;;;;;;2.20;1.80;;;18.30;99.90;;;;;;4842135;29;37332;-85
2022/07/16 00:16:41;;;;;;;3.30;2.22;;;18.20;99.90;;;;;;4848396;29;37196;-85
2022/07/16 00:19:18;;;;;;;3.80;2.25;;;18.20;99.90;;;;;;4841310;29;35903;-85
2022/07/16 00:21:46;;;;;;;3.67;1.75;;;18.20;99.90;;;;;;4840963;29;39492;-85
2022/07/16 00:24:13;;;;;;;4.70;2.60;;;18.10;99.90;;;;;;4838027;29;38894;-85
2022/07/16 00:26:39;;;;;;;3.00;2.20;;;18.10;99.90;;;;;;4840090;29;37131;-85
2022/07/16 00:29:05;;;;;;;4.63;2.20;;;18.20;99.90;;;;;;4848909;29;36277;-85
2022/07/16 00:31:31;;;;;;;6.70;2.72;;;18.10;99.90;;;;;;4873012;29;39895;-85
2022/07/16 00:33:57;;;;;;;3.92;2.40;;;18.10;99.90;;;;;;4857503;29;37337;-85
2022/07/16 00:36:23;;;;;;;5.43;2.50;;;18.10;99.90;;;;;;4854620;29;38731;-84
2022/07/16 00:38:49;;;;;;;6.38;2.65;;;18.10;99.90;;;;;;4853345;29;36880;-85
2022/07/16 00:41:18;;;;;;;3.13;2.38;;;18.10;99.90;;;;;;4856200;29;38091;-85
2022/07/16 00:43:50;;;;;;;3.58;2.80;;;18.10;99.90;;;;;;4855494;29;37185;-85
2022/07/16 00:46:17;;;;;;;4.13;2.55;;;18.00;99.90;;;;;;4855092;29;38474;-84
2022/07/16 00:48:44;;;;;;;3.85;2.47;;;18.00;99.90;;;;;;4850763;29;36662;-84
2022/07/16 00:51:11;;;;;;;3.90;2.80;;;18.00;99.90;;;;;;4870653;29;38678;-84
2022/07/16 00:53:39;;;;;;;4.63;2.70;;;18.00;99.90;;;;;;4854206;29;37264;-85
2022/07/16 00:56:10;;;;;;;4.00;2.20;;;18.00;99.90;;;;;;4854445;29;36693;-84
2022/07/16 00:58:38;;;;;;;3.22;2.30;;;18.00;99.90;;;;;;4856923;29;37022;-85
2022/07/16 01:01:04;;;;;;;3.72;2.42;;;18.00;99.90;;;;;;4856196;29;37996;-84
2022/07/16 01:03:30;;;;;;;5.88;2.33;;;18.00;99.90;;;;;;4854077;29;37990;-85
2022/07/16 01:05:57;;;;;;;5.80;2.20;;;18.00;99.90;;;;;;4854316;29;37290;-85
2022/07/16 01:08:24;;;;;;;4.85;2.35;;;18.00;99.90;;;;;;4856402;29;36222;-85
2022/07/16 01:10:51;;;;;;;5.32;2.15;;;18.00;99.90;;;;;;4855521;29;37614;-85
2022/07/16 01:13:17;;;;;;;2.47;1.88;;;18.10;99.90;;;;;;4852890;29;37599;-85
2022/07/16 01:15:44;;;;;;;4.38;2.10;;;18.10;99.90;;;;;;4871950;29;37871;-85
2022/07/16 01:18:10;;;;;;;4.97;1.92;;;18.20;99.90;;;;;;4853594;29;36499;-85
2022/07/16 01:20:36;;;;;;;5.13;1.92;;;18.20;99.90;;;;;;4855361;29;37822;-85
2022/07/16 01:23:02;;;;;;;2.92;2.00;;;18.20;99.90;;;;;;4854530;29;39543;-85
2022/07/16 01:25:28;;;;;;;4.18;1.70;;;18.30;99.90;;;;;;4854628;29;47174;-85
2022/07/16 01:27:54;;;;;;;4.95;1.88;;;18.30;99.90;;;;;;4854160;29;36349;-85
2022/07/16 01:30:21;;;;;;;2.75;1.67;;;18.40;99.90;;;;;;4855994;29;37890;-85
2022/07/16 01:32:47;;;;;;;2.25;1.55;;;18.40;99.90;;;;;;4871334;29;38482;-85
2022/07/16 01:35:13;;;;;;;4.15;1.65;;;18.40;99.90;;;;;;4873117;29;38716;-84
2022/07/16 01:37:39;;;;;;;3.28;1.77;;;18.40;99.90;;;;;;4874844;29;37108;-85
2022/07/16 01:40:06;;;;;;;3.70;1.90;;;18.60;99.90;;;;;;4856172;29;38354;-85
2022/07/16 01:42:32;;;;;;;5.97;1.92;;;18.50;99.90;;;;;;4875652;29;39624;-85
2022/07/16 01:44:59;;;;;;;5.30;2.03;;;18.60;99.90;;;;;;4859475;29;37881;-84
2022/07/16 01:47:26;;;;;;;6.32;2.20;;;18.60;99.90;;;;;;4857168;29;36027;-85
2022/07/16 01:49:52;;;;;;;4.88;2.13;;;18.60;99.90;;;;;;4857364;29;37843;-85
2022/07/16 01:52:20;;;;;;;6.32;1.75;;;18.70;99.90;;;;;;4857744;29;37549;-85
2022/07/16 01:54:53;;;;;;;4.43;1.58;;;18.80;99.90;;;;;;4873791;29;38352;-85
2022/07/16 01:57:21;;;;;;;4.35;1.70;;;18.80;99.90;;;;;;4873745;29;37596;-85
2022/07/16 01:59:48;;;;;;;3.58;1.83;;;18.80;99.90;;;;;;4874583;29;38989;-85
2022/07/16 02:02:14;;;;;;;5.05;1.88;;;18.80;99.90;;;;;;4873685;29;38296;-86
2022/07/16 02:04:41;;;;;;;7.25;1.70;;;18.80;99.90;;;;;;4857446;29;37737;-85
2022/07/16 02:07:08;;;;;;;4.57;1.55;;;18.90;99.90;;;;;;4855947;29;38517;-86
2022/07/16 02:09:34;;;;;;;7.47;1.90;;;18.90;99.90;;;;;;4874173;29;39189;-86
2022/07/16 02:12:01;;;;;;;6.53;1.50;;;18.90;99.90;;;;;;4857898;29;38857;-86
2022/07/16 02:14:27;;;;;;;4.07;2.05;;;18.90;99.90;;;;;;4855021;29;47425;-84
2022/07/16 02:16:53;;;;;;;3.53;1.90;;;18.90;99.90;;;;;;4858621;29;36853;-86
2022/07/16 02:19:19;;;;;;;4.05;1.75;;;18.90;99.90;;;;;;4872679;29;38951;-85
2022/07/16 02:21:46;;;;;;;5.32;1.98;;;18.90;99.90;;;;;;4857788;29;38914;-85
2022/07/16 02:24:12;;;;;;;4.20;1.92;;;18.80;99.90;;;;;;4874883;29;38203;-86
2022/07/16 02:26:38;;;;;;;4.32;1.63;;;18.80;99.90;;;;;;4857190;29;36054;-86
2022/07/16 02:29:04;;;;;;;5.20;1.60;;;18.80;99.90;;;;;;4857844;29;38042;-84
2022/07/16 02:31:30;;;;;;;1.83;1.35;;;18.70;99.90;;;;;;4859179;29;37054;-86
2022/07/16 02:33:56;;;;;;;3.88;1.60;;;18.70;99.90;;;;;;4855654;29;38264;-86
2022/07/16 02:36:22;;;;;;;3.38;1.52;;;18.60;99.90;;;;;;4857552;29;36163;-86
2022/07/16 02:38:48;;;;;;;3.72;1.40;;;18.50;99.90;;;;;;4869504;29;38770;-85
2022/07/16 02:41:14;;;;;;;5.60;1.60;;;18.50;99.90;;;;;;4848836;29;37946;-86
2022/07/16 02:43:40;;;;;;;4.38;1.48;;;18.50;99.90;;;;;;4871389;29;38809;-87
2022/07/16 02:46:06;;;;;;;5.07;1.40;;;18.40;99.90;;;;;;4874770;29;38265;-90
2022/07/16 02:48:32;;;;;;;2.47;1.60;;;18.40;99.90;;;;;;4858740;29;38029;-90
2022/07/16 02:50:59;;;;;;;5.50;2.00;;;18.30;99.90;;;;;;4858029;29;40140;-89
2022/07/16 02:53:25;;;;;;;5.13;1.90;;;18.30;99.90;;;;;;4856046;29;37159;-88
2022/07/16 02:55:51;;;;;;;5.05;1.85;;;18.20;99.90;;;;;;4857094;29;35973;-91
2022/07/16 02:58:17;;;;;;;4.45;1.98;;;18.20;99.90;;;;;;4855769;29;38590;-86
2022/07/16 03:00:44;;;;;;;4.68;2.00;;;18.00;99.90;;;;;;4858372;29;37779;-87
2022/07/16 03:03:10;;;;;;;5.25;1.80;;;18.10;99.90;;;;;;4853881;29;37973;-86
2022/07/16 03:05:36;;;;;;;3.67;1.80;;;18.00;99.90;;;;;;4857563;29;36201;-87
2022/07/16 03:08:02;;;;;;;3.20;1.67;;;17.90;99.90;;;;;;4857256;29;37398;-86
2022/07/16 03:10:28;;;;;;;2.60;1.40;;;17.80;99.90;;;;;;4866468;29;39207;-93
2022/07/16 03:12:54;;;;;;;3.88;1.35;;;17.80;99.90;;;;;;4856759;29;37156;-85
2022/07/16 03:15:20;;;;;;;4.75;1.52;;;17.70;99.90;;;;;;4855298;29;36275;-85
2022/07/16 03:17:46;;;;;;;2.83;1.38;;;17.70;99.90;;;;;;4854308;29;37435;-85
2022/07/16 03:20:12;;;;;;;2.63;1.20;;;17.60;99.90;;;;;;4874593;29;39013;-85
2022/07/16 03:22:43;;;;;;;4.25;1.50;;;17.60;99.90;;;;;;4856632;29;38300;-85
2022/07/16 03:25:10;;;;;;;3.55;1.10;;;17.60;99.90;;;;;;4869660;29;37948;-86
2022/07/16 03:27:36;;;;;;;1.92;1.40;;;17.50;99.90;;;;;;4865691;29;38348;-87
2022/07/16 03:30:02;;;;;;;3.53;1.13;;;17.60;99.90;;;;;;4875195;29;38584;-88
2022/07/16 03:32:29;;;;;;;4.53;1.15;;;17.50;99.90;;;;;;4856146;29;37121;-86
2022/07/16 03:34:55;;;;;;;3.17;1.05;;;17.50;99.90;;;;;;4848654;29;36501;-89
2022/07/16 03:37:21;;;;;;;2.58;1.10;;;17.40;99.90;;;;;;4856882;29;37894;-87
2022/07/16 03:39:48;;;;;;;3.30;1.10;;;17.40;99.90;;;;;;4873381;29;20073;-88
2022/07/16 03:42:14;;;;;;;1.85;0.70;;;17.40;99.90;;;;;;4874805;29;38005;-88
2022/07/16 03:44:40;;;;;;;1.75;0.90;;;17.40;99.90;;;;;;4856816;29;37113;-89
2022/07/16 03:47:06;;;;;;;1.48;0.80;;;17.30;99.90;;;;;;4873941;29;38404;-88
2022/07/16 03:49:32;;;;;;;3.10;1.10;;;17.30;99.90;;;;;;4856211;29;37720;-86
2022/07/16 03:51:58;;;;;;;2.22;1.00;;;17.30;99.90;;;;;;4856796;29;39548;-89
2022/07/16 03:54:25;;;;;;;2.45;1.10;;;17.20;99.90;;;;;;4852545;29;36241;-87
2022/07/16 03:56:51;;;;;;;2.05;1.10;;;17.30;99.90;;;;;;4857239;29;37725;-88
2022/07/16 03:59:17;;;;;;;3.42;1.35;;;17.20;99.90;;;;;;4856393;29;37133;-87
2022/07/16 04:01:43;;;;;;;1.33;0.90;;;17.20;99.90;;;;;;4855825;29;36920;-87
2022/07/16 04:04:09;;;;;;;4.20;1.30;;;17.30;99.90;;;;;;4870886;29;36878;-87
2022/07/16 04:06:35;;;;;;;4.95;1.30;;;17.30;99.90;;;;;;4872852;29;38944;-87
2022/07/16 04:09:02;;;;;;;2.10;1.23;;;17.20;99.90;;;;;;4857849;29;38180;-88
2022/07/16 04:11:28;;;;;;;1.75;1.25;;;17.30;99.90;;;;;;4856982;29;47469;-87
2022/07/16 04:13:54;;;;;;;5.45;2.08;;;17.20;99.90;;;;;;4852458;29;37307;-88
2022/07/16 04:16:20;;;;;;;5.70;1.40;;;17.20;99.90;;;;;;4874276;29;38748;-91
2022/07/16 04:18:46;;;;;;;1.98;1.33;;;17.20;99.90;;;;;;4856738;29;37368;-87
2022/07/16 04:21:14;;;;;;;3.75;2.00;;;17.20;99.90;;;;;;4855079;29;37900;-88
2022/07/16 04:23:40;;;;;;;4.25;1.83;;;17.20;99.90;;;;;;4856247;29;37375;-88
2022/07/16 04:26:06;;;;;;;2.70;2.30;;;17.20;99.90;;;;;;4855690;29;38700;-87
2022/07/16 04:28:32;;;;;;;4.15;1.58;;;17.20;99.90;;;;;;4845555;29;38690;-87
2022/07/16 04:30:58;;;;;;;4.65;1.83;;;17.20;99.90;;;;;;4839114;29;37733;-92
2022/07/16 04:33:25;;;;;;;3.67;1.60;;;17.20;99.90;;;;;;4836320;29;36301;-87
2022/07/16 04:35:51;;;;;;;3.60;1.60;;;17.20;99.90;;;;;;4852346;29;38453;-88
2022/07/16 04:38:19;;;;;;;1.38;1.23;;;17.30;99.90;;;;;;4838913;29;36946;-86
2022/07/16 04:40:45;;;;;;;1.90;1.48;;;17.30;99.90;;;;;;4838251;29;37080;-87
2022/07/16 04:43:11;;;;;;;2.63;1.33;;;17.30;99.90;;;;;;4830649;29;37443;-86
2022/07/16 04:45:37;;;;;;;2.88;1.10;;;17.30;99.90;;;;;;4837402;29;37600;-88
2022/07/16 04:48:03;;;;;;;2.30;1.10;;;17.30;99.90;;;;;;4839143;29;37147;-90
2022/07/16 04:50:29;;;;;;;5.40;1.65;;;17.40;99.90;;;;;;4854261;29;38465;-89
2022/07/16 04:52:56;;;;;;;3.08;1.30;;;17.40;99.90;;;;;;4853191;29;37179;-87
2022/07/16 04:55:22;;;;;;;3.45;1.40;;;17.40;99.90;;;;;;4836719;29;37875;-86
2022/07/16 04:57:48;;;;;;;2.17;1.00;;;17.40;99.90;;;;;;4835520;29;38912;-87
2022/07/16 05:00:14;;;;;;;3.40;1.08;;;17.30;99.90;;;;;;4852913;29;39105;-85
2022/07/16 05:02:58;;;;;;;3.40;0.98;;;17.30;99.90;;;;;;4838185;29;36165;-87
2022/07/16 05:05:26;;;;;;;4.38;0.75;;;17.30;99.90;;;;;;4836005;29;39351;-86
2022/07/16 05:07:52;;;;;;;3.30;0.88;;;17.30;99.90;;;;;;4836011;29;38292;-86
2022/07/16 05:10:18;;;;;;;1.13;0.60;;;17.40;99.90;;;;;;4836308;29;36872;-87
2022/07/16 05:12:44;;;;;;;2.47;0.80;;;17.40;99.90;;;;;;4837686;29;37164;-93
2022/07/16 05:15:10;;;;;;;3.25;0.90;;;17.60;99.90;;;;;;4836771;29;39213;-87
2022/07/16 05:17:36;;;;;;;1.83;0.80;;;17.60;99.90;;;;;;4833979;29;37634;-86
2022/07/16 05:20:03;;;;;;;2.10;0.80;;;17.80;99.90;;;;;;4836691;29;36676;-88
2022/07/16 05:22:30;;;;;;;5.43;1.42;;;17.90;99.90;;;;;;4836661;29;36312;-86
2022/07/16 05:24:57;;;;;;;3.40;1.00;;;17.90;99.90;;;;;;4848521;29;39471;-88
2022/07/16 05:27:23;;;;;;;2.40;0.85;;;18.10;99.90;;;;;;4836651;29;37459;-86
2022/07/16 05:29:49;;;;;;;5.00;1.50;;;18.30;99.90;;;;;;4836161;29;36892;-88
2022/07/16 05:32:16;;;;;;;5.00;1.10;;;18.30;99.90;;;;;;4852805;29;38544;-88
2022/07/16 05:34:43;;;;;;;3.75;0.93;;;18.50;99.90;;;;;;4837174;29;37713;-90
2022/07/16 05:37:09;;;;;;;4.97;0.90;;;18.60;99.90;;;;;;4837343;29;38160;-86
2022/07/16 05:39:37;;;;;;;2.63;0.80;;;18.70;99.90;;;;;;4834761;29;37167;-87
2022/07/16 05:42:04;;;;;;;5.53;1.02;;;18.90;99.90;;;;;;4836703;29;37021;-84
2022/07/16 05:44:30;;;;;;;3.92;0.90;;;19.10;99.90;;;;;;4838673;29;37731;-82
2022/07/16 05:46:56;;;;;;;4.50;1.08;;;19.50;99.90;;;;;;4836798;29;37659;-83
2022/07/16 05:49:22;;;;;;;2.63;0.80;;;19.50;99.90;;;;;;4836140;29;37312;-92
2022/07/16 05:51:48;;;;;;;6.30;1.05;;;19.50;99.90;;;;;;4837805;29;36314;-83
2022/07/16 05:54:14;;;;;;;3.30;1.02;;;19.40;99.90;;;;;;4834108;29;37818;-82
2022/07/16 05:56:40;;;;;;;6.28;1.73;;;19.40;99.90;;;;;;4838031;29;37380;-86
2022/07/16 05:59:06;;;;;;;3.95;1.00;;;19.50;99.90;;;;;;4833745;29;37128;-87
2022/07/16 06:01:32;;;;;;;3.72;1.20;;;19.70;99.90;;;;;;4836985;29;36892;-86
2022/07/16 06:03:58;;;;;;;5.57;1.02;;;19.60;99.90;;;;;;4840902;29;37458;-83
2022/07/16 06:06:24;;;;;;;3.33;1.00;;;19.60;99.90;;;;;;4856547;29;38434;-86
2022/07/16 06:08:50;;;;;;;2.80;1.00;;;19.30;99.90;;;;;;4839103;29;37721;-84
2022/07/16 06:11:17;;;;;;;4.55;1.33;;;19.30;99.90;;;;;;4838854;29;36219;-85
2022/07/16 06:13:43;;;;;;;5.32;0.93;;;19.50;99.90;;;;;;4841300;29;38246;-88
2022/07/16 06:16:09;;;;;;;2.38;0.90;;;19.70;99.90;;;;;;4839910;29;38200;-87
2022/07/16 06:18:35;;;;;;;3.72;0.93;;;19.90;99.90;;;;;;4842526;29;37857;-88
2022/07/16 06:21:02;;;;;;;4.40;1.10;;;20.10;99.90;;;;;;4838067;29;38340;-84
2022/07/16 06:23:29;;;;;;;3.15;0.70;;;20.00;99.90;;;;;;4835342;29;37998;-83
2022/07/16 06:25:55;;;;;;;5.13;1.27;;;19.90;99.90;;;;;;4839710;29;38358;-83
2022/07/16 06:28:21;;;;;;;4.88;1.55;;;19.90;99.90;;;;;;4845760;29;38637;-84
2022/07/16 06:30:47;;;;;;;3.08;1.23;;;19.80;99.90;;;;;;4848268;29;36491;-84
2022/07/16 06:33:13;;;;;;;4.30;1.00;;;19.80;99.90;;;;;;4850347;29;37663;-84
2022/07/16 06:35:39;;;;;;;1.85;0.70;;;20.20;99.90;;;;;;4860339;29;38337;-85
2022/07/16 06:38:05;;;;;;;2.50;0.95;;;20.60;99.90;;;;;;4843107;29;36997;-86
2022/07/16 06:40:34;;;;;;;3.80;1.23;;;20.80;99.90;;;;;;4851427;29;36352;-87
2022/07/16 06:43:00;;;;;;;3.38;1.05;;;20.90;99.90;;;;;;4851406;29;38796;-83
2022/07/16 06:45:26;;;;;;;3.05;0.80;;;21.00;99.90;;;;;;4852905;29;47134;-82
2022/07/16 06:47:52;;;;;;;4.50;0.93;;;20.70;99.90;;;;;;4844766;29;37983;-93
2022/07/16 06:50:19;;;;;;;5.32;1.60;;;20.40;99.90;;;;;;4842786;29;36255;-90
2022/07/16 06:52:45;;;;;;;1.95;0.90;;;20.10;99.90;;;;;;4845736;29;38249;-85
2022/07/16 06:55:11;;;;;;;5.80;0.98;;;20.00;99.90;;;;;;4846027;29;39051;-87
2022/07/16 06:57:37;;;;;;;3.80;0.95;;;20.10;99.90;;;;;;4847865;29;37568;-86
2022/07/16 07:00:04;;;;;;;2.67;0.93;;;20.10;99.90;;;;;;4862879;29;37201;-85
2022/07/16 07:02:30;;;;;;;4.03;0.90;;;20.30;99.90;;;;;;4847298;29;47867;-84
2022/07/16 07:04:56;;;;;;;2.75;0.95;;;20.70;99.90;;;;;;4840124;29;38767;-85
2022/07/16 07:07:22;;;;;;;2.88;0.90;;;20.90;99.90;;;;;;4841103;29;38264;-88
2022/07/16 07:09:48;;;;;;;8.25;1.30;;;21.00;99.90;;;;;;4839089;29;36794;-83
2022/07/16 07:12:14;;;;;;;3.67;1.08;;;20.90;99.90;;;;;;4861460;29;38794;-84
2022/07/16 07:14:40;;;;;;;4.53;1.05;;;21.10;99.90;;;;;;4865615;29;39090;-84
2022/07/16 07:17:06;;;;;;;3.38;1.00;;;21.40;99.90;;;;;;4850735;29;37046;-88
2022/07/16 07:19:32;;;;;;;3.83;0.70;;;21.40;99.90;;;;;;4840440;29;36406;-85
2022/07/16 07:21:58;;;;;;;5.28;1.23;;;21.60;99.90;;;;;;4846993;29;38301;-83
2022/07/16 07:24:24;;;;;;;5.82;1.08;;;21.60;99.90;;;;;;4871174;29;38173;-87
2022/07/16 07:26:50;;;;;;;3.65;1.08;;;21.40;99.90;;;;;;4845732;29;37271;-84
2022/07/16 07:29:16;;;;;;;3.97;0.88;;;21.20;99.90;;;;;;4853006;29;36455;-85
2022/07/16 07:31:42;;;;;;;3.53;0.95;;;21.10;99.90;;;;;;4856649;29;39269;-87
2022/07/16 07:34:09;;;;;;;4.22;0.90;;;21.20;99.90;;;;;;4844291;29;37330;-86
2022/07/16 07:36:37;;;;;;;3.55;0.93;;;21.20;99.90;;;;;;4858205;29;37111;-83
2022/07/16 07:39:03;;;;;;;5.10;1.08;;;21.50;99.90;;;;;;4856019;29;36506;-84
2022/07/16 07:41:30;;;;;;;4.38;0.90;;;21.60;99.90;;;;;;4858581;29;37927;-87
2022/07/16 07:43:56;;;;;;;6.15;1.98;;;21.70;99.90;;;;;;4856482;29;37421;-85
2022/07/16 07:46:22;;;;;;;12.05;1.58;;;21.90;99.90;;;;;;4856484;29;37610;-91
2022/07/16 07:48:48;;;;;;;2.50;0.60;;;21.90;99.90;;;;;;4858948;29;36892;-88
2022/07/16 07:51:14;;;;;;;3.35;0.82;;;21.80;99.90;;;;;;4857248;29;39484;-86
2022/07/16 07:53:40;;;;;;;5.50;1.45;;;22.10;99.90;;;;;;4849560;29;37649;-86
2022/07/16 07:56:06;;;;;;;3.72;1.38;;;22.20;99.90;;;;;;4857461;29;38012;-94
2022/07/16 07:58:34;;;;;;;1.27;0.50;;;22.40;99.90;;;;;;4855025;29;36571;-87
2022/07/16 08:01:00;;;;;;;1.20;0.55;;;22.40;99.90;;;;;;4855774;29;37809;-91
2022/07/16 08:03:26;;;;;;;3.10;0.60;;;22.30;99.90;;;;;;4856632;29;47004;-94
2022/07/16 08:05:52;;;;;;;2.75;0.75;;;22.20;99.90;;;;;;4858356;29;38272;-93
2022/07/16 08:08:18;;;;;;;4.60;0.90;;;22.40;99.90;;;;;;4845583;29;37136;-88
2022/07/16 08:10:45;;;;;;;2.50;0.70;;;22.60;99.90;;;;;;4851150;29;39443;-92
2022/07/16 08:13:11;;;;;;;2.70;0.95;;;22.80;99.90;;;;;;4856285;29;37766;-90
2022/07/16 08:15:37;;;;;;;5.72;0.85;;;22.80;99.90;;;;;;4847739;29;36921;-86
2022/07/16 08:18:03;;;;;;;4.13;0.80;;;22.60;99.90;;;;;;4855957;29;36079;-91
2022/07/16 08:20:30;;;;;;;2.45;0.70;;;22.70;99.90;;;;;;4856995;29;38031;-93
2022/07/16 08:22:56;;;;;;;3.58;0.90;;;22.80;99.90;;;;;;4855655;29;37678;-87
2022/07/16 08:28:07;;;;;;;3.17;0.80;;;23.00;99.90;;;;;;4871830;29;38745;-86
2022/07/16 08:30:33;;;;;;;1.33;0.50;;;23.30;99.90;;;;;;4857244;29;38980;-88
2022/07/16 08:32:59;;;;;;;4.60;1.00;;;23.10;99.90;;;;;;4873400;29;38519;-87
2022/07/16 08:35:25;;;;;;;2.53;0.80;;;23.00;99.90;;;;;;4860539;29;36861;-87
2022/07/16 08:37:51;;;;;;;1.92;0.63;;;23.10;99.90;;;;;;4856796;29;36366;-86
2022/07/16 08:40:20;;;;;;;3.00;0.70;;;23.30;99.90;;;;;;4855605;29;38805;-88
2022/07/16 08:42:47;;;;;;;1.85;0.60;;;23.40;99.90;;;;;;4857406;29;38734;-85
2022/07/16 08:45:16;;;;;;;2.95;0.85;;;23.70;99.90;;;;;;4853380;29;37087;-86
2022/07/16 08:47:42;;;;;;;3.33;0.75;;;23.60;99.90;;;;;;4855869;29;36061;-83
2022/07/16 08:50:11;;;;;;;3.67;0.75;;;23.60;99.90;;;;;;4865375;29;38778;-83
2022/07/16 08:52:39;;;;;;;2.53;0.60;;;23.70;99.90;;;;;;4864034;29;39183;-82
2022/07/16 08:55:07;;;;;;;4.80;0.95;;;23.90;99.90;;;;;;4870689;29;39674;-88
2022/07/16 08:57:35;;;;;;;3.70;0.80;;;24.10;99.90;;;;;;4856049;29;36721;-87
2022/07/16 09:00:02;;;;;;;2.47;0.90;;;24.10;99.90;;;;;;4856488;29;40319;-82
2022/07/16 09:02:28;;;;;;;1.75;0.47;;;24.10;99.90;;;;;;4873082;29;38834;-82
2022/07/16 09:04:54;;;;;;;3.92;0.75;;;24.30;99.90;;;;;;4854032;29;38295;-83
2022/07/16 09:07:21;;;;;;;4.10;0.73;;;24.50;99.90;;;;;;4852299;29;35853;-87
2022/07/16 09:09:47;;;;;;;2.40;0.73;;;24.20;99.90;;;;;;4853297;29;38803;-82
2022/07/16 09:12:40;;;;;;;1.45;0.60;;;24.00;99.90;;;;;;4854509;29;37513;-83
2022/07/16 09:15:31;;;;;;;1.85;0.60;;;23.80;99.90;;;;;;4855255;29;37343;-81
2022/07/16 09:18:09;;;;;;;3.00;0.80;;;23.80;99.90;;;;;;4847905;29;37264;-83
2022/07/16 09:20:37;;;;;;;3.10;0.80;;;23.90;99.90;;;;;;4869874;29;46923;-82
2022/07/16 09:23:04;;;;;;;3.38;0.60;;;23.90;99.90;;;;;;4855331;29;37179;-84
2022/07/16 09:25:30;;;;;;;1.35;0.63;;;24.20;99.90;;;;;;4858215;29;38347;-82
2022/07/16 09:27:59;;;;;;;9.02;0.80;;;24.10;99.90;;;;;;4872658;29;37019;-85
2022/07/16 09:30:27;;;;;;;4.45;0.85;;;24.10;99.90;;;;;;4854314;29;39375;-83
2022/07/16 09:32:53;;;;;;;5.05;0.60;;;24.00;99.90;;;;;;4855796;29;38787;-82
2022/07/16 09:35:21;;;;;;;1.77;0.70;;;24.10;99.90;;;;;;4855147;29;36881;-82
2022/07/16 09:37:52;;;;;;;6.03;0.93;;;24.30;99.90;;;;;;4853761;29;36491;-82
2022/07/16 09:40:38;;;;;;;1.77;0.52;;;24.70;99.90;;;;;;4872339;29;39270;-83
2022/07/16 09:43:19;;;;;;;1.23;0.52;;;24.80;99.90;;;;;;4857285;29;37540;-89
2022/07/16 09:45:57;;;;;;;2.20;0.70;;;24.70;99.90;;;;;;4854305;29;39782;-84
2022/07/16 09:48:25;;;;;;;2.42;0.68;;;24.70;99.90;;;;;;4852163;29;36561;-86
2022/07/16 09:50:53;;;;;;;1.42;0.52;;;24.90;99.90;;;;;;4854546;29;38308;-83
2022/07/16 09:53:22;;;;;;;2.53;0.75;;;25.00;99.90;;;;;;4871820;29;38521;-84
2022/07/16 09:56:02;;;;;;;2.13;0.75;;;24.50;99.90;;;;;;4856029;29;37804;-83
2022/07/16 09:58:29;;;;;;;3.63;0.80;;;24.50;99.90;;;;;;4856231;29;47453;-85
2022/07/16 10:00:56;;;;;;;4.75;0.70;;;24.80;99.90;;;;;;4858398;29;39174;-89
2022/07/16 10:03:22;;;;;;;1.75;0.60;;;24.60;99.90;;;;;;4858842;29;38609;-88
2022/07/16 10:05:49;;;;;;;2.00;0.70;;;24.50;99.90;;;;;;4857580;29;38849;-83
2022/07/16 10:08:16;;;;;;;2.47;0.80;;;24.60;99.90;;;;;;4858718;29;37394;-82
2022/07/16 10:10:43;;;;;;;1.85;0.85;;;24.70;99.90;;;;;;4858794;29;37719;-85
2022/07/16 10:13:10;;;;;;;1.55;0.68;;;24.80;99.90;;;;;;4850357;29;37903;-88
2022/07/16 10:15:37;;;;;;;3.13;0.80;;;24.70;99.90;;;;;;4859448;29;37381;-87
2022/07/16 10:18:04;;;;;;;2.38;0.60;;;24.60;99.90;;;;;;4857975;29;36393;-88
2022/07/16 10:20:35;;;;;;;1.80;0.70;;;24.80;99.90;;;;;;4858082;29;38290;-88
2022/07/16 10:23:05;;;;;;;3.15;0.95;;;24.80;99.90;;;;;;4855027;29;38047;-83
2022/07/16 10:25:35;;;;;;;3.42;0.90;;;24.90;99.90;;;;;;4874496;29;37403;-84
2022/07/16 10:28:01;;;;;;;4.13;1.08;;;25.00;99.90;;;;;;4852820;29;36331;-84
2022/07/16 10:30:32;;;;;;;1.77;0.63;;;24.80;99.90;;;;;;4856899;29;38245;-83
2022/07/16 10:33:06;;;;;;;3.88;0.63;;;24.70;99.90;;;;;;4859018;29;37392;-82
2022/07/16 10:35:41;;;;;;;2.97;0.77;;;24.80;99.90;;;;;;4856935;29;47237;-82
2022/07/16 10:38:08;;;;;;;1.70;0.65;;;24.50;99.90;;;;;;4848704;29;36574;-83
2022/07/16 10:40:37;;;;;;;2.15;0.73;;;24.50;99.90;;;;;;4857247;29;39011;-84
2022/07/16 10:43:10;;;;;;;1.58;0.70;;;24.50;99.90;;;;;;4857852;29;39353;-83
2022/07/16 10:45:55;;;;;;;2.33;0.50;;;24.60;99.90;;;;;;4874458;29;37626;-80
2022/07/16 10:48:44;;;;;;;3.97;0.75;;;25.00;99.90;;;;;;4853408;29;37256;-81
2022/07/16 10:51:15;;;;;;;1.42;0.63;;;25.10;99.90;;;;;;4824473;29;37670;-81
2022/07/16 10:53:57;;;;;;;1.52;0.70;;;25.20;99.90;;;;;;4857254;29;38853;-83
2022/07/16 10:56:39;;;;;;;1.50;0.70;;;25.30;99.90;;;;;;4854686;29;37192;-81
2022/07/16 10:59:07;;;;;;;3.20;0.80;;;25.50;99.90;;;;;;4854102;29;35963;-82
2022/07/16 11:01:42;;;;;;;3.85;0.75;;;25.30;99.90;;;;;;4858651;29;39148;-85
2022/07/16 11:04:09;;;;;;;1.63;0.52;;;25.20;99.90;;;;;;4855691;29;38344;-84
2022/07/16 11:06:37;;;;;;;2.20;0.65;;;25.20;99.90;;;;;;4856302;29;37825;-85
2022/07/16 11:09:06;;;;;;;2.03;0.80;;;25.30;99.90;;;;;;4855538;29;37555;-82
2022/07/16 11:11:37;;;;;;;3.70;0.73;;;25.40;99.90;;;;;;4858234;29;37709;-87
2022/07/16 11:14:04;;;;;;;;;;;25.30;99.90;;;;;;4875430;29;38663;-88
2022/07/16 11:16:31;;;;;;;2.50;0.65;;;25.50;99.90;;;;;;4856759;29;36835;-83
2022/07/16 11:19:04;;;;;;;5.25;0.77;;;25.40;99.90;;;;;;4857016;29;36683;-85
2022/07/16 11:21:31;;;;;;;4.70;1.00;;;25.20;99.90;;;;;;4868765;29;47336;-85
2022/07/16 11:23:59;;;;;;;2.00;0.82;;;24.00;99.90;;;;;;4874255;29;38157;-82
2022/07/16 11:26:29;;;;;;;3.15;0.57;;;24.00;99.90;;;;;;4856921;29;37181;-81
2022/07/16 11:29:02;;;;;;;3.03;0.70;;;24.30;99.90;;;;;;4851392;29;38570;-84
2022/07/16 11:31:33;;;;;;;1.75;0.60;;;24.80;99.90;;;;;;4849486;29;47076;-86
2022/07/16 11:34:05;;;;;;;1.77;0.60;;;25.00;99.90;;;;;;4846672;29;37667;-86
2022/07/16 11:36:33;;;;;;;;;;;25.00;99.90;;;;;;4841213;29;46773;-82
2022/07/16 11:39:26;;;;;;;2.38;0.73;;;24.90;99.90;;;;;;4845578;29;38353;-83
2022/07/16 11:41:54;;;;;;;2.40;0.82;;;25.10;99.90;;;;;;4854612;29;49427;-81
2022/07/16 11:44:23;;;;;;;2.15;0.68;;;25.30;99.90;;;;;;4843107;29;38478;-85
2022/07/16 11:46:55;;;;;;;1.90;0.68;;;25.40;99.90;;;;;;4842606;29;37329;-82
2022/07/16 11:49:36;;;;;;;2.83;0.85;;;25.60;99.90;;;;;;4838749;29;36206;-86
2022/07/16 11:52:05;;;;;;;2.70;0.70;;;25.50;99.90;;;;;;4848565;29;39761;-82
2022/07/16 11:54:37;;;;;;;2.20;0.73;;;25.20;99.90;;;;;;4847563;29;37472;-87
2022/07/16 11:57:03;;;;;;;2.85;0.57;;;25.20;99.90;;;;;;4841718;29;37235;-88
2022/07/16 11:59:32;;;;;;;1.38;0.65;;;25.10;99.90;;;;;;4839647;29;37228;-85
2022/07/16 12:02:10;;;;;;;1.08;0.70;;;24.80;99.90;;;;;;4843055;29;37687;-84
2022/07/16 12:04:39;;;;;;;3.03;0.70;;;25.00;99.90;;;;;;4835848;29;47138;-81
2022/07/16 12:07:11;;;;;;;0.82;0.50;;;24.90;99.90;;;;;;4860098;29;38023;-84
2022/07/16 12:09:43;;;;;;;2.35;0.80;;;25.30;99.90;;;;;;4848453;29;36161;-82
2022/07/16 12:12:13;;;;;;;1.67;0.63;;;24.90;99.90;;;;;;4859809;29;39115;-82
2022/07/16 12:14:45;;;;;;;2.38;1.05;;;25.20;99.90;;;;;;4852392;29;39282;-84
2022/07/16 12:17:37;;;;;;;;;;;25.20;99.90;;;;;;4859467;29;38477;-88
2022/07/16 12:20:09;;;;;;;2.10;0.70;;;24.90;99.90;;;;;;4835006;29;36188;-84
2022/07/16 12:23:02;;;;;;;2.03;0.80;;;25.00;99.90;;;;;;4841376;29;47251;-83
2022/07/16 12:25:28;;;;;;;2.30;0.75;;;25.00;99.90;;;;;;4843367;29;47520;-83
2022/07/16 12:27:58;;;;;;;2.08;0.75;;;24.40;99.90;;;;;;4846502;29;38572;-86
2022/07/16 12:30:51;;;;;;;2.70;0.88;;;24.30;99.90;;;;;;4859878;29;38216;-85
2022/07/16 12:33:23;;;;;;;2.53;0.70;;;24.30;99.90;;;;;;4838709;29;39170;-85
2022/07/16 12:35:59;;;;;;;3.70;0.90;;;24.50;99.90;;;;;;4850177;29;37874;-80
2022/07/16 12:38:52;;;;;;;1.98;0.75;;;24.90;99.90;;;;;;4851779;29;38155;-87
2022/07/16 12:41:50;;;;;;;2.00;0.70;;;25.70;99.90;;;;;;4838465;29;37063;-87
2022/07/16 12:44:18;;;;;;;3.03;0.73;;;25.50;99.90;;;;;;4803638;29;39307;-81
2022/07/16 12:46:50;;;;;;;3.90;0.73;;;25.20;99.90;;;;;;4855728;29;39441;-83
2022/07/16 12:49:20;;;;;;;5.82;0.70;;;24.90;99.90;;;;;;4828080;29;37111;-83
2022/07/16 12:51:52;;;;;;;1.50;0.82;;;24.80;99.90;;;;;;4843348;29;37525;-85
2022/07/16 12:54:19;;;;;;;2.67;0.90;;;24.90;99.90;;;;;;4843397;29;38103;-80
2022/07/16 12:59:33;;;;;;;2.78;0.70;;;25.70;99.90;;;;;;4860799;29;49010;-82